KMLBKEYW

Guest
Details From KMLB - Melbourne Intl
To KEYW - Key West Intl
Flight Number -
Tags generated
Created
Modified
Stats Distance 222 nm / 412 km
Max Altitude 24,600 ft / 7,498 m
Waypoints 4
Social Downloads 0
Likes 0
Share VATSIM

Download

Looking for another format? Having issues loading an existing format? Contact us
Advertisement - Login to hide

Notes

Basic altitude profile: - Ascent Rate: 2500ft/min - Ascent Speed: 250kts - Cruise Altitude: 3500ft - Cruise Speed: 100kts - Descent Rate: 1500ft/min - Descent Speed: 250kts Options: - Use NATs: yes - Use PACOTS: yes - Use low airways: yes - Use high airways: yes

Route

KMLB WINCO SWAGS KEYW

ID Type Via Altitude Latitude Longitude Leg Dist Tot Dist Heading (true) Name
O KMLB APT - 0 ft / 0 m 28.10229˚ -80.64340˚ - 0 nm - Melbourne Intl
WINCO FIX - 24,600 ft / 7,498 m 26.41736˚ -80.97181˚ 102 nm 102 nm 190° / 190° -
SWAGS FIX - 22,200 ft / 6,767 m 26.17697˚ -81.09997˚ 16 nm 118 nm 206° / 206° -
O KEYW APT - 0 ft / 0 m 24.55612˚ -81.75955˚ 103 nm 222 nm 200° / 200° Key West Intl

Altitude Profile

Advertisement - Login to hide

Weather


0- 5 10 15 20 25 30 35+ Temperature / ° C

Clouds and Precipitation
Forecast for 2017-12-14 00:00 UTC. Updated 2 hours ago

Ground ~20,000 ft ~40,000 ft Winds

KMLB

Details ICAO KMLB (MLB)
Name Melbourne Intl
Region United States
Timezone America/New_York (UTC-5.0)
Stats Elevation 33 ft / 10 m (AMSL)
Location 28.102288° -80.643402°
Runways 3
Magnetic Variation 6.769° W

METAR

KMLB 132253Z 27004KT 10SM CLR 14/M01 A3005 RMK AO2 SLP174 T01441006

Decode

TAF

TAF KMLB 131720Z 1318/1418 30007KT P6SM SKC FM140000 25003KT P6SM SKC FM141500 23009KT P6SM SCT040

Decode

Departure Runways

ID Width Length Bearing (true) Bearing (mag) Surface Threshold Offset Overrun Length
05 75 ft / 23 m 3,005 ft / 916 m 41.95° 48.72° Asphalt 0 ft / 0 m 0 ft / 0 m
09L 150 ft / 46 m 5,989 ft / 1,826 m 86.86° 93.63° Asphalt 0 ft / 0 m 0 ft / 0 m
09R 150 ft / 46 m 10,165 ft / 3,098 m 86.85° 93.62° Asphalt 0 ft / 0 m 360 ft / 110 m
23 75 ft / 23 m 3,005 ft / 916 m 221.96° 228.73° Asphalt 0 ft / 0 m 1,283 ft / 391 m
27L 150 ft / 46 m 10,165 ft / 3,098 m 266.87° 273.64° Asphalt 700 ft / 213 m 1,000 ft / 305 m
27R 150 ft / 46 m 5,989 ft / 1,826 m 266.87° 273.64° Asphalt 0 ft / 0 m 0 ft / 0 m

KEYW

Details ICAO KEYW (EYW)
Name Key West Intl
Region United States
Timezone America/New_York (UTC-5.0)
Stats Elevation 2 ft / 1 m (AMSL)
Location 24.556124° -81.759546°
Runways 1
Magnetic Variation 5.545° W

METAR

KEYW 132253Z 35006KT 10SM CLR 17/12 A3008 RMK AO2 SLP186 T01720122

Decode

TAF

KEYW 131742Z 1318/1418 01011KT P6SM SKC FM140100 VRB03KT P6SM SKC FM141500 03006KT P6SM SKC

Decode

Destination Runways

ID Width Length Bearing (true) Bearing (mag) Surface Threshold Offset Overrun Length
09 100 ft / 30 m 4,794 ft / 1,461 m 89.38° 94.92° Asphalt 151 ft / 46 m 0 ft / 0 m
27 100 ft / 30 m 4,794 ft / 1,461 m 269.39° 274.93° Asphalt 151 ft / 46 m 0 ft / 0 m

Popular Alternatives